sensor_id;sensor_type;location;lat;lon;timestamp;pressure;altitude;pressure_sealevel;temperature;humidity
22047;BME280;11187;49.412;20.956;2022-12-07T00:00:36;94502.81;;;1.56;100.00
22047;BME280;11187;49.412;20.956;2022-12-07T00:03:09;94497.81;;;1.58;100.00
22047;BME280;11187;49.412;20.956;2022-12-07T00:05:59;94493.59;;;1.58;100.00
22047;BME280;11187;49.412;20.956;2022-12-07T00:08:34;94498.63;;;1.58;100.00
22047;BME280;11187;49.412;20.956;2022-12-07T00:11:22;94501.19;;;1.60;100.00
22047;BME280;11187;49.412;20.956;2022-12-07T00:13:58;94498.69;;;1.61;100.00
22047;BME280;11187;49.412;20.956;2022-12-07T00:16:52;94504.53;;;1.60;100.00
22047;BME280;11187;49.412;20.956;2022-12-07T00:19:46;94506.22;;;1.63;100.00
22047;BME280;11187;49.412;20.956;2022-12-07T00:22:20;94495.31;;;1.62;100.00
22047;BME280;11187;49.412;20.956;2022-12-07T00:25:06;94500.38;;;1.64;100.00
22047;BME280;11187;49.412;20.956;2022-12-07T00:27:39;94501.22;;;1.66;100.00
22047;BME280;11187;49.412;20.956;2022-12-07T00:30:26;94493.63;;;1.64;100.00
22047;BME280;11187;49.412;20.956;2022-12-07T00:32:59;94496.16;;;1.64;100.00
22047;BME280;11187;49.412;20.956;2022-12-07T00:35:46;94502.88;;;1.65;100.00
22047;BME280;11187;49.412;20.956;2022-12-07T00:38:19;94503.75;;;1.66;100.00
22047;BME280;11187;49.412;20.956;2022-12-07T00:41:10;94507.94;;;1.67;100.00
22047;BME280;11187;49.412;20.956;2022-12-07T00:43:45;94497.84;;;1.67;100.00
22047;BME280;11187;49.412;20.956;2022-12-07T00:46:32;94505.41;;;1.65;100.00
22047;BME280;11187;49.412;20.956;2022-12-07T00:49:05;94502.03;;;1.65;100.00
22047;BME280;11187;49.412;20.956;2022-12-07T00:51:52;94504.56;;;1.65;100.00
22047;BME280;11187;49.412;20.956;2022-12-07T00:54:25;94502.88;;;1.65;100.00
22047;BME280;11187;49.412;20.956;2022-12-07T00:57:12;94487.75;;;1.65;100.00
22047;BME280;11187;49.412;20.956;2022-12-07T00:59:45;94489.41;;;1.63;100.00
22047;BME280;11187;49.412;20.956;2022-12-07T01:02:35;94486.91;;;1.62;100.00
22047;BME280;11187;49.412;20.956;2022-12-07T01:05:08;94493.63;;;1.60;100.00
22047;BME280;11187;49.412;20.956;2022-12-07T01:07:55;94481.84;;;1.60;100.00
22047;BME280;11187;49.412;20.956;2022-12-07T01:10:29;94484.34;;;1.60;100.00
22047;BME280;11187;49.412;20.956;2022-12-07T01:13:16;94487.72;;;1.59;100.00
22047;BME280;11187;49.412;20.956;2022-12-07T01:15:49;94500.34;;;1.59;100.00
22047;BME280;11187;49.412;20.956;2022-12-07T01:18:36;94494.44;;;1.60;100.00
22047;BME280;11187;49.412;20.956;2022-12-07T01:21:21;94488.56;;;1.60;100.00
22047;BME280;11187;49.412;20.956;2022-12-07T01:24:15;94487.72;;;1.58;100.00
22047;BME280;11187;49.412;20.956;2022-12-07T01:26:49;94480.13;;;1.56;100.00
22047;BME280;11187;49.412;20.956;2022-12-07T01:29:43;94486.00;;;1.55;100.00
22047;BME280;11187;49.412;20.956;2022-12-07T01:32:37;94480.13;;;1.55;100.00
22047;BME280;11187;49.412;20.956;2022-12-07T01:35:33;94479.31;;;1.57;100.00
22047;BME280;11187;49.412;20.956;2022-12-07T01:38:06;94466.66;;;1.56;100.00
22047;BME280;11187;49.412;20.956;2022-12-07T01:40:55;94468.34;;;1.55;100.00
22047;BME280;11187;49.412;20.956;2022-12-07T01:43:30;94466.66;;;1.53;100.00
22047;BME280;11187;49.412;20.956;2022-12-07T01:46:17;94464.16;;;1.53;100.00
22047;BME280;11187;49.412;20.956;2022-12-07T01:48:51;94471.72;;;1.53;100.00
22047;BME280;11187;49.412;20.956;2022-12-07T01:51:38;94474.22;;;1.54;100.00
22047;BME280;11187;49.412;20.956;2022-12-07T01:54:14;94481.81;;;1.56;100.00
22047;BME280;11187;49.412;20.956;2022-12-07T01:57:10;94484.34;;;1.56;100.00
22047;BME280;11187;49.412;20.956;2022-12-07T02:00:06;94487.69;;;1.55;100.00
22047;BME280;11187;49.412;20.956;2022-12-07T02:02:49;94487.66;;;1.52;100.00
22047;BME280;11187;49.412;20.956;2022-12-07T02:05:40;94478.41;;;1.49;100.00
22047;BME280;11187;49.412;20.956;2022-12-07T02:08:14;94479.22;;;1.46;100.00
22047;BME280;11187;49.412;20.956;2022-12-07T02:11:09;94480.91;;;1.48;100.00
22047;BME280;11187;49.412;20.956;2022-12-07T02:14:04;94469.16;;;1.48;100.00
22047;BME280;11187;49.412;20.956;2022-12-07T02:16:51;94474.19;;;1.46;100.00
22047;BME280;11187;49.412;20.956;2022-12-07T02:20:07;94470.78;;;1.43;100.00
22047;BME280;11187;49.412;20.956;2022-12-07T02:23:09;94476.69;;;1.45;100.00
22047;BME280;11187;49.412;20.956;2022-12-07T02:26:23;94477.56;;;1.45;100.00
22047;BME280;11187;49.412;20.956;2022-12-07T02:32:24;94471.66;;;1.45;100.00
22047;BME280;11187;49.412;20.956;2022-12-07T02:35:06;94468.28;;;1.44;100.00
22047;BME280;11187;49.412;20.956;2022-12-07T02:38:08;94473.31;;;1.43;100.00
22047;BME280;11187;49.412;20.956;2022-12-07T02:41:10;94465.75;;;1.43;100.00
22047;BME280;11187;49.412;20.956;2022-12-07T02:44:11;94463.25;;;1.41;100.00
22047;BME280;11187;49.412;20.956;2022-12-07T02:47:02;94460.72;;;1.41;100.00
22047;BME280;11187;49.412;20.956;2022-12-07T02:49:56;94462.34;;;1.38;100.00
22047;BME280;11187;49.412;20.956;2022-12-07T02:52:50;94462.34;;;1.38;100.00
22047;BME280;11187;49.412;20.956;2022-12-07T02:55:29;94459.00;;;1.40;100.00
22047;BME280;11187;49.412;20.956;2022-12-07T03:08:06;94466.56;;;1.34;100.00
22047;BME280;11187;49.412;20.956;2022-12-07T03:11:04;94461.50;;;1.34;100.00
22047;BME280;11187;49.412;20.956;2022-12-07T03:13:55;94462.34;;;1.35;100.00
22047;BME280;11187;49.412;20.956;2022-12-07T03:17:06;94462.38;;;1.39;100.00
22047;BME280;11187;49.412;20.956;2022-12-07T03:20:04;94458.16;;;1.38;100.00
22047;BME280;11187;49.412;20.956;2022-12-07T03:22:39;94461.53;;;1.37;100.00
22047;BME280;11187;49.412;20.956;2022-12-07T03:25:41;94454.78;;;1.38;100.00
22047;BME280;11187;49.412;20.956;2022-12-07T03:28:43;94452.28;;;1.39;100.00
22047;BME280;11187;49.412;20.956;2022-12-07T03:31:42;94461.53;;;1.39;100.00
22047;BME280;11187;49.412;20.956;2022-12-07T03:34:29;94454.81;;;1.39;100.00
22047;BME280;11187;49.412;20.956;2022-12-07T03:40:10;94436.31;;;1.39;100.00
22047;BME280;11187;49.412;20.956;2022-12-07T03:43:05;94441.38;;;1.39;100.00
22047;BME280;11187;49.412;20.956;2022-12-07T03:49:21;94432.13;;;1.39;100.00
22047;BME280;11187;49.412;20.956;2022-12-07T03:52:33;94438.81;;;1.36;100.00
22047;BME280;11187;49.412;20.956;2022-12-07T03:55:22;94430.38;;;1.34;100.00
22047;BME280;11187;49.412;20.956;2022-12-07T03:58:13;94430.41;;;1.35;100.00
22047;BME280;11187;49.412;20.956;2022-12-07T04:00:49;94438.00;;;1.37;100.00
22047;BME280;11187;49.412;20.956;2022-12-07T04:03:36;94432.94;;;1.40;100.00
22047;BME280;11187;49.412;20.956;2022-12-07T04:06:11;94437.13;;;1.38;100.00
22047;BME280;11187;49.412;20.956;2022-12-07T04:09:04;94435.47;;;1.37;100.00
22047;BME280;11187;49.412;20.956;2022-12-07T04:12:00;94427.06;;;1.38;100.00
22047;BME280;11187;49.412;20.956;2022-12-07T04:14:41;94433.78;;;1.37;100.00
22047;BME280;11187;49.412;20.956;2022-12-07T04:17:28;94431.28;;;1.39;100.00
22047;BME280;11187;49.412;20.956;2022-12-07T04:20:04;94424.56;;;1.39;100.00
22047;BME280;11187;49.412;20.956;2022-12-07T04:22:51;94422.00;;;1.38;100.00
22047;BME280;11187;49.412;20.956;2022-12-07T04:25:25;94425.38;;;1.38;100.00
22047;BME280;11187;49.412;20.956;2022-12-07T04:28:11;94431.25;;;1.40;100.00
22047;BME280;11187;49.412;20.956;2022-12-07T04:30:45;94432.13;;;1.41;100.00
22047;BME280;11187;49.412;20.956;2022-12-07T04:33:40;94433.81;;;1.42;100.00
22047;BME280;11187;49.412;20.956;2022-12-07T04:36:14;94432.13;;;1.41;100.00
22047;BME280;11187;49.412;20.956;2022-12-07T04:39:21;94422.88;;;1.40;100.00
22047;BME280;11187;49.412;20.956;2022-12-07T04:41:54;94420.31;;;1.38;100.00
22047;BME280;11187;49.412;20.956;2022-12-07T04:44:44;94424.53;;;1.35;100.00
22047;BME280;11187;49.412;20.956;2022-12-07T04:47:19;94433.75;;;1.33;100.00
22047;BME280;11187;49.412;20.956;2022-12-07T04:50:06;94439.63;;;1.30;100.00
22047;BME280;11187;49.412;20.956;2022-12-07T04:52:39;94435.44;;;1.32;100.00
22047;BME280;11187;49.412;20.956;2022-12-07T04:55:26;94427.88;;;1.34;100.00
22047;BME280;11187;49.412;20.956;2022-12-07T04:58:00;94431.22;;;1.31;100.00
22047;BME280;11187;49.412;20.956;2022-12-07T05:00:55;94427.84;;;1.31;100.00
22047;BME280;11187;49.412;20.956;2022-12-07T05:03:49;94426.16;;;1.31;100.00
22047;BME280;11187;49.412;20.956;2022-12-07T05:06:23;94426.19;;;1.33;100.00
22047;BME280;11187;49.412;20.956;2022-12-07T05:09:11;94416.94;;;1.33;100.00
22047;BME280;11187;49.412;20.956;2022-12-07T05:11:45;94422.81;;;1.34;100.00
22047;BME280;11187;49.412;20.956;2022-12-07T05:14:40;94426.22;;;1.34;100.00
22047;BME280;11187;49.412;20.956;2022-12-07T05:17:34;94419.47;;;1.35;100.00
22047;BME280;11187;49.412;20.956;2022-12-07T05:20:28;94420.34;;;1.37;100.00
22047;BME280;11187;49.412;20.956;2022-12-07T05:23:08;94410.22;;;1.35;100.00
22047;BME280;11187;49.412;20.956;2022-12-07T05:25:54;94416.09;;;1.36;100.00
22047;BME280;11187;49.412;20.956;2022-12-07T05:28:28;94405.19;;;1.37;100.00
22047;BME280;11187;49.412;20.956;2022-12-07T05:31:14;94410.25;;;1.37;100.00
22047;BME280;11187;49.412;20.956;2022-12-07T05:33:52;94412.75;;;1.35;100.00
22047;BME280;11187;49.412;20.956;2022-12-07T05:36:39;94419.47;;;1.33;100.00
22047;BME280;11187;49.412;20.956;2022-12-07T05:39:13;94416.09;;;1.33;100.00
22047;BME280;11187;49.412;20.956;2022-12-07T05:42:07;94411.06;;;1.34;100.00
22047;BME280;11187;49.412;20.956;2022-12-07T05:45:03;94411.88;;;1.32;100.00
22047;BME280;11187;49.412;20.956;2022-12-07T05:47:36;94417.75;;;1.29;100.00
22047;BME280;11187;49.412;20.956;2022-12-07T05:50:23;94416.91;;;1.32;100.00
22047;BME280;11187;49.412;20.956;2022-12-07T05:52:57;94419.47;;;1.33;100.00
22047;BME280;11187;49.412;20.956;2022-12-07T05:55:44;94428.72;;;1.34;100.00
22047;BME280;11187;49.412;20.956;2022-12-07T05:58:17;94435.44;;;1.34;100.00
22047;BME280;11187;49.412;20.956;2022-12-07T06:01:21;94433.75;;;1.33;100.00
22047;BME280;11187;49.412;20.956;2022-12-07T06:03:55;94432.91;;;1.32;100.00
22047;BME280;11187;49.412;20.956;2022-12-07T06:06:41;94431.25;;;1.34;100.00
22047;BME280;11187;49.412;20.956;2022-12-07T06:09:15;94436.28;;;1.34;100.00
22047;BME280;11187;49.412;20.956;2022-12-07T06:12:02;94436.31;;;1.37;100.00
22047;BME280;11187;49.412;20.956;2022-12-07T06:14:55;94430.41;;;1.37;100.00
22047;BME280;11187;49.412;20.956;2022-12-07T06:17:48;94426.22;;;1.34;100.00
22047;BME280;11187;49.412;20.956;2022-12-07T06:20:22;94431.22;;;1.33;100.00
22047;BME280;11187;49.412;20.956;2022-12-07T06:23:15;94427.03;;;1.33;100.00
22047;BME280;11187;49.412;20.956;2022-12-07T06:25:49;94420.28;;;1.31;100.00
22047;BME280;11187;49.412;20.956;2022-12-07T06:28:35;94415.22;;;1.29;100.00
22047;BME280;11187;49.412;20.956;2022-12-07T06:31:29;94415.25;;;1.28;100.00
22047;BME280;11187;49.412;20.956;2022-12-07T06:34:08;94412.69;;;1.26;100.00
22047;BME280;11187;49.412;20.956;2022-12-07T06:36:55;94407.66;;;1.23;100.00
22047;BME280;11187;49.412;20.956;2022-12-07T06:39:29;94413.53;;;1.27;100.00
22047;BME280;11187;49.412;20.956;2022-12-07T06:42:15;94409.31;;;1.27;100.00
22047;BME280;11187;49.412;20.956;2022-12-07T06:44:49;94402.63;;;1.26;100.00
22047;BME280;11187;49.412;20.956;2022-12-07T06:47:35;94407.69;;;1.28;100.00
22047;BME280;11187;49.412;20.956;2022-12-07T06:50:11;94411.03;;;1.28;100.00
22047;BME280;11187;49.412;20.956;2022-12-07T06:52:58;94408.50;;;1.27;100.00
22047;BME280;11187;49.412;20.956;2022-12-07T06:55:32;94406.81;;;1.29;100.00
22047;BME280;11187;49.412;20.956;2022-12-07T06:58:18;94413.56;;;1.31;100.00
22047;BME280;11187;49.412;20.956;2022-12-07T07:00:52;94409.38;;;1.33;100.00
22047;BME280;11187;49.412;20.956;2022-12-07T07:03:38;94412.72;;;1.34;100.00
22047;BME280;11187;49.412;20.956;2022-12-07T07:06:13;94412.72;;;1.34;100.00
22047;BME280;11187;49.412;20.956;2022-12-07T07:09:00;94407.69;;;1.34;100.00
22047;BME280;11187;49.412;20.956;2022-12-07T07:11:34;94406.88;;;1.35;100.00
22047;BME280;11187;49.412;20.956;2022-12-07T07:14:20;94418.66;;;1.34;100.00
22047;BME280;11187;49.412;20.956;2022-12-07T07:16:55;94415.28;;;1.35;100.00
22047;BME280;11187;49.412;20.956;2022-12-07T07:19:41;94418.66;;;1.37;100.00
22047;BME280;11187;49.412;20.956;2022-12-07T07:22:17;94418.66;;;1.37;100.00
22047;BME280;11187;49.412;20.956;2022-12-07T07:25:10;94417.81;;;1.37;100.00
22047;BME280;11187;49.412;20.956;2022-12-07T07:28:06;94425.38;;;1.38;100.00
22047;BME280;11187;49.412;20.956;2022-12-07T07:31:02;94426.22;;;1.39;100.00
22047;BME280;11187;49.412;20.956;2022-12-07T07:33:58;94425.38;;;1.38;100.00
22047;BME280;11187;49.412;20.956;2022-12-07T07:36:32;94421.19;;;1.42;100.00
22047;BME280;11187;49.412;20.956;2022-12-07T07:39:25;94423.69;;;1.40;100.00
22047;BME280;11187;49.412;20.956;2022-12-07T07:42:01;94434.63;;;1.38;100.00
22047;BME280;11187;49.412;20.956;2022-12-07T07:44:56;94432.94;;;1.38;100.00
22047;BME280;11187;49.412;20.956;2022-12-07T07:47:51;94438.00;;;1.40;100.00
22047;BME280;11187;49.412;20.956;2022-12-07T07:50:24;94433.81;;;1.42;100.00
22047;BME280;11187;49.412;20.956;2022-12-07T07:53:10;94435.47;;;1.43;100.00
22047;BME280;11187;49.412;20.956;2022-12-07T07:55:51;94438.00;;;1.43;100.00
22047;BME280;11187;49.412;20.956;2022-12-07T07:58:45;94443.91;;;1.43;100.00
22047;BME280;11187;49.412;20.956;2022-12-07T08:01:19;94453.19;;;1.46;100.00
22047;BME280;11187;49.412;20.956;2022-12-07T08:04:05;94445.59;;;1.44;100.00
22047;BME280;11187;49.412;20.956;2022-12-07T08:06:39;94449.81;;;1.45;100.00
22047;BME280;11187;49.412;20.956;2022-12-07T08:09:32;94453.16;;;1.44;100.00
22047;BME280;11187;49.412;20.956;2022-12-07T08:12:26;94460.72;;;1.44;100.00
22047;BME280;11187;49.412;20.956;2022-12-07T08:15:00;94458.19;;;1.44;100.00
22047;BME280;11187;49.412;20.956;2022-12-07T08:17:53;94460.72;;;1.44;100.00
22047;BME280;11187;49.412;20.956;2022-12-07T08:20:30;94457.38;;;1.47;100.00
22047;BME280;11187;49.412;20.956;2022-12-07T08:23:27;94458.22;;;1.49;100.00
22047;BME280;11187;49.412;20.956;2022-12-07T08:26:20;94451.50;;;1.50;100.00
22047;BME280;11187;49.412;20.956;2022-12-07T08:29:07;94455.72;;;1.51;100.00
22047;BME280;11187;49.412;20.956;2022-12-07T08:32:01;94455.72;;;1.54;100.00
22047;BME280;11187;49.412;20.956;2022-12-07T08:34:35;94459.09;;;1.54;100.00
22047;BME280;11187;49.412;20.956;2022-12-07T08:37:28;94458.28;;;1.57;100.00
22047;BME280;11187;49.412;20.956;2022-12-07T08:40:22;94451.56;;;1.57;100.00
22047;BME280;11187;49.412;20.956;2022-12-07T08:43:16;94457.44;;;1.58;100.00
22047;BME280;11187;49.412;20.956;2022-12-07T08:45:59;94452.41;;;1.59;100.00
22047;BME280;11187;49.412;20.956;2022-12-07T08:49:10;94453.25;;;1.60;100.00
22047;BME280;11187;49.412;20.956;2022-12-07T08:51:44;94460.81;;;1.63;100.00
22047;BME280;11187;49.412;20.956;2022-12-07T08:54:34;94448.22;;;1.67;100.00
22047;BME280;11187;49.412;20.956;2022-12-07T08:57:09;94460.00;;;1.70;100.00
22047;BME280;11187;49.412;20.956;2022-12-07T08:59:57;94450.78;;;1.74;100.00
22047;BME280;11187;49.412;20.956;2022-12-07T09:02:31;94453.31;;;1.77;100.00
22047;BME280;11187;49.412;20.956;2022-12-07T09:05:18;94451.63;;;1.76;100.00
22047;BME280;11187;49.412;20.956;2022-12-07T09:07:55;94454.16;;;1.74;100.00
22047;BME280;11187;49.412;20.956;2022-12-07T09:10:45;94458.34;;;1.72;100.00
22047;BME280;11187;49.412;20.956;2022-12-07T09:13:19;94455.00;;;1.73;100.00
22047;BME280;11187;49.412;20.956;2022-12-07T09:16:05;94455.84;;;1.74;100.00
22047;BME280;11187;49.412;20.956;2022-12-07T09:18:39;94455.81;;;1.72;100.00
22047;BME280;11187;49.412;20.956;2022-12-07T09:21:25;94453.31;;;1.71;100.00
22047;BME280;11187;49.412;20.956;2022-12-07T09:23:59;94451.59;;;1.70;100.00
22047;BME280;11187;49.412;20.956;2022-12-07T09:26:52;94447.41;;;1.70;100.00
22047;BME280;11187;49.412;20.956;2022-12-07T09:29:46;94457.50;;;1.69;100.00
22047;BME280;11187;49.412;20.956;2022-12-07T09:32:20;94450.75;;;1.66;100.00
22047;BME280;11187;49.412;20.956;2022-12-07T09:35:07;94447.38;;;1.64;100.00
22047;BME280;11187;49.412;20.956;2022-12-07T09:37:41;94446.53;;;1.63;100.00
22047;BME280;11187;49.412;20.956;2022-12-07T09:40:27;94443.16;;;1.60;100.00
22047;BME280;11187;49.412;20.956;2022-12-07T09:43:01;94439.78;;;1.59;100.00
22047;BME280;11187;49.412;20.956;2022-12-07T09:45:55;94441.47;;;1.60;100.00
22047;BME280;11187;49.412;20.956;2022-12-07T09:48:50;94443.19;;;1.64;100.00
22047;BME280;11187;49.412;20.956;2022-12-07T09:51:24;94441.50;;;1.65;100.00
22047;BME280;11187;49.412;20.956;2022-12-07T09:54:17;94439.81;;;1.64;100.00
22047;BME280;11187;49.412;20.956;2022-12-07T09:56:51;94440.66;;;1.67;100.00
22047;BME280;11187;49.412;20.956;2022-12-07T09:59:38;94441.50;;;1.70;100.00
22047;BME280;11187;49.412;20.956;2022-12-07T10:05:24;94430.63;;;1.78;100.00
22047;BME280;11187;49.412;20.956;2022-12-07T10:07:59;94421.34;;;1.79;100.00
22047;BME280;11187;49.412;20.956;2022-12-07T10:10:54;94419.66;;;1.79;100.00
22047;BME280;11187;49.412;20.956;2022-12-07T10:13:36;94420.53;;;1.83;100.00
22047;BME280;11187;49.412;20.956;2022-12-07T10:19:27;94423.09;;;1.91;100.00
22047;BME280;11187;49.412;20.956;2022-12-07T10:22:20;94423.94;;;1.93;100.00
22047;BME280;11187;49.412;20.956;2022-12-07T10:25:08;94417.22;;;1.95;100.00
22047;BME280;11187;49.412;20.956;2022-12-07T10:28:17;94422.25;;;1.95;100.00
22047;BME280;11187;49.412;20.956;2022-12-07T10:31:20;94420.59;;;1.94;100.00
22047;BME280;11187;49.412;20.956;2022-12-07T10:33:59;94423.09;;;1.95;100.00
22047;BME280;11187;49.412;20.956;2022-12-07T10:36:46;94422.28;;;1.93;100.00
22047;BME280;11187;49.412;20.956;2022-12-07T10:39:21;94415.53;;;1.92;100.00
22047;BME280;11187;49.412;20.956;2022-12-07T10:42:29;94418.88;;;1.93;100.00
22047;BME280;11187;49.412;20.956;2022-12-07T10:45:22;94411.34;;;1.96;100.00
22047;BME280;11187;49.412;20.956;2022-12-07T10:48:43;94413.00;;;1.95;100.00
22047;BME280;11187;49.412;20.956;2022-12-07T10:54:26;94412.97;;;1.84;100.00
22047;BME280;11187;49.412;20.956;2022-12-07T11:01:21;94406.22;;;1.77;100.00
22047;BME280;11187;49.412;20.956;2022-12-07T11:07:10;94407.06;;;1.81;100.00
22047;BME280;11187;49.412;20.956;2022-12-07T11:10:01;94405.41;;;1.86;100.00
22047;BME280;11187;49.412;20.956;2022-12-07T11:16:24;94391.13;;;1.93;100.00
22047;BME280;11187;49.412;20.956;2022-12-07T11:22:13;94402.09;;;1.98;100.00
22047;BME280;11187;49.412;20.956;2022-12-07T11:36:47;94386.94;;;2.04;100.00
22047;BME280;11187;49.412;20.956;2022-12-07T11:39:37;94388.66;;;2.09;100.00
22047;BME280;11187;49.412;20.956;2022-12-07T11:42:18;94394.53;;;2.13;100.00
22047;BME280;11187;49.412;20.956;2022-12-07T11:45:23;94400.44;;;2.20;100.00
22047;BME280;11187;49.412;20.956;2022-12-07T11:48:04;94386.16;;;2.25;100.00
22047;BME280;11187;49.412;20.956;2022-12-07T11:50:54;94398.78;;;2.33;100.00
22047;BME280;11187;49.412;20.956;2022-12-07T11:53:53;94401.34;;;2.37;100.00
22047;BME280;11187;49.412;20.956;2022-12-07T11:56:42;94398.81;;;2.42;100.00
22047;BME280;11187;49.412;20.956;2022-12-07T11:59:21;94390.38;;;2.40;100.00
22047;BME280;11187;49.412;20.956;2022-12-07T12:02:20;94391.22;;;2.40;100.00
22047;BME280;11187;49.412;20.956;2022-12-07T12:05:13;94392.09;;;2.45;100.00
22047;BME280;11187;49.412;20.956;2022-12-07T12:08:26;94396.28;;;2.46;100.00
22047;BME280;11187;49.412;20.956;2022-12-07T12:19:15;94393.75;;;2.51;100.00
22047;BME280;11187;49.412;20.956;2022-12-07T12:21:57;94395.44;;;2.52;100.00
22047;BME280;11187;49.412;20.956;2022-12-07T12:24:50;94389.56;;;2.53;100.00
22047;BME280;11187;49.412;20.956;2022-12-07T12:27:28;94392.94;;;2.57;100.00
22047;BME280;11187;49.412;20.956;2022-12-07T12:30:38;94400.50;;;2.58;100.00
22047;BME280;11187;49.412;20.956;2022-12-07T12:33:26;94393.78;;;2.60;100.00
22047;BME280;11187;49.412;20.956;2022-12-07T12:41:56;94391.25;;;2.60;100.00
22047;BME280;11187;49.412;20.956;2022-12-07T12:47:40;94381.97;;;2.61;100.00
22047;BME280;11187;49.412;20.956;2022-12-07T12:50:18;94391.25;;;2.57;100.00
22047;BME280;11187;49.412;20.956;2022-12-07T12:53:24;94393.75;;;2.54;100.00
22047;BME280;11187;49.412;20.956;2022-12-07T12:56:23;94390.41;;;2.55;100.00
22047;BME280;11187;49.412;20.956;2022-12-07T12:59:26;94397.13;;;2.53;100.00
22047;BME280;11187;49.412;20.956;2022-12-07T13:08:18;94394.63;;;2.62;100.00
22047;BME280;11187;49.412;20.956;2022-12-07T13:11:18;94390.41;;;2.58;100.00
22047;BME280;11187;49.412;20.956;2022-12-07T13:14:37;94394.63;;;2.59;100.00
22047;BME280;11187;49.412;20.956;2022-12-07T13:20:43;94402.19;;;2.61;100.00
22047;BME280;11187;49.412;20.956;2022-12-07T13:23:20;94392.09;;;2.58;100.00
22047;BME280;11187;49.412;20.956;2022-12-07T13:26:20;94397.97;;;2.58;100.00
22047;BME280;11187;49.412;20.956;2022-12-07T13:29:11;94398.81;;;2.60;100.00
22047;BME280;11187;49.412;20.956;2022-12-07T13:31:57;94397.13;;;2.61;100.00
22047;BME280;11187;49.412;20.956;2022-12-07T13:34:37;94402.22;;;2.59;100.00
22047;BME280;11187;49.412;20.956;2022-12-07T13:37:27;94409.75;;;2.61;100.00
22047;BME280;11187;49.412;20.956;2022-12-07T13:40:19;94403.88;;;2.59;100.00
22047;BME280;11187;49.412;20.956;2022-12-07T13:43:15;94413.16;;;2.57;100.00
22047;BME280;11187;49.412;20.956;2022-12-07T13:45:56;94403.06;;;2.57;100.00
22047;BME280;11187;49.412;20.956;2022-12-07T13:48:50;94400.50;;;2.58;100.00
22047;BME280;11187;49.412;20.956;2022-12-07T13:51:27;94410.63;;;2.60;100.00
22047;BME280;11187;49.412;20.956;2022-12-07T13:54:15;94401.34;;;2.59;100.00
22047;BME280;11187;49.412;20.956;2022-12-07T13:56:51;94411.44;;;2.56;100.00
22047;BME280;11187;49.412;20.956;2022-12-07T13:59:38;94406.41;;;2.53;100.00
22047;BME280;11187;49.412;20.956;2022-12-07T14:02:26;94419.03;;;2.51;100.00
22047;BME280;11187;49.412;20.956;2022-12-07T14:05:23;94417.34;;;2.48;100.00
22047;BME280;11187;49.412;20.956;2022-12-07T14:08:02;94419.03;;;2.48;100.00
22047;BME280;11187;49.412;20.956;2022-12-07T14:10:55;94421.53;;;2.45;100.00
22047;BME280;11187;49.412;20.956;2022-12-07T14:16:34;94427.44;;;2.42;100.00
22047;BME280;11187;49.412;20.956;2022-12-07T14:22:38;94420.69;;;2.40;100.00
22047;BME280;11187;49.412;20.956;2022-12-07T14:25:32;94420.69;;;2.38;100.00
22047;BME280;11187;49.412;20.956;2022-12-07T14:28:32;94426.56;;;2.36;100.00
22047;BME280;11187;49.412;20.956;2022-12-07T14:31:26;94423.19;;;2.34;100.00
22047;BME280;11187;49.412;20.956;2022-12-07T14:34:21;94427.41;;;2.30;100.00
22047;BME280;11187;49.412;20.956;2022-12-07T14:36:55;94425.72;;;2.29;100.00
22047;BME280;11187;49.412;20.956;2022-12-07T14:39:41;94432.44;;;2.27;100.00
22047;BME280;11187;49.412;20.956;2022-12-07T14:42:15;94436.66;;;2.26;100.00
22047;BME280;11187;49.412;20.956;2022-12-07T14:45:02;94433.31;;;2.27;100.00
22047;BME280;11187;49.412;20.956;2022-12-07T14:47:36;94441.75;;;2.29;100.00
22047;BME280;11187;49.412;20.956;2022-12-07T14:50:52;94440.03;;;2.32;100.00
22047;BME280;11187;49.412;20.956;2022-12-07T14:53:49;94445.09;;;2.30;100.00
22047;BME280;11187;49.412;20.956;2022-12-07T14:56:36;94444.28;;;2.29;100.00
22047;BME280;11187;49.412;20.956;2022-12-07T14:59:10;94445.09;;;2.28;100.00
22047;BME280;11187;49.412;20.956;2022-12-07T15:02:04;94440.03;;;2.27;100.00
22047;BME280;11187;49.412;20.956;2022-12-07T15:04:38;94443.41;;;2.27;100.00
22047;BME280;11187;49.412;20.956;2022-12-07T15:07:24;94440.03;;;2.28;100.00
22047;BME280;11187;49.412;20.956;2022-12-07T15:09:59;94435.00;;;2.28;100.00
22047;BME280;11187;49.412;20.956;2022-12-07T15:12:46;94449.31;;;2.28;100.00
22047;BME280;11187;49.412;20.956;2022-12-07T15:15:19;94440.03;;;2.28;100.00
22047;BME280;11187;49.412;20.956;2022-12-07T15:18:13;94438.34;;;2.24;100.00
22047;BME280;11187;49.412;20.956;2022-12-07T15:20:46;94445.91;;;2.24;100.00
22047;BME280;11187;49.412;20.956;2022-12-07T15:23:33;94445.06;;;2.24;100.00
22047;BME280;11187;49.412;20.956;2022-12-07T15:26:07;94446.75;;;2.22;100.00
22047;BME280;11187;49.412;20.956;2022-12-07T15:28:55;94449.28;;;2.19;100.00
22047;BME280;11187;49.412;20.956;2022-12-07T15:31:29;94432.44;;;2.15;100.00
22047;BME280;11187;49.412;20.956;2022-12-07T15:34:29;94443.38;;;2.09;100.00
22047;BME280;11187;49.412;20.956;2022-12-07T15:37:12;94448.38;;;2.01;100.00
22047;BME280;11187;49.412;20.956;2022-12-07T15:39:46;94442.44;;;1.92;100.00
22047;BME280;11187;49.412;20.956;2022-12-07T15:42:32;94455.03;;;1.84;100.00
22047;BME280;11187;49.412;20.956;2022-12-07T15:45:07;94459.22;;;1.77;100.00
22047;BME280;11187;49.412;20.956;2022-12-07T15:48:01;94463.41;;;1.71;100.00
22047;BME280;11187;49.412;20.956;2022-12-07T15:51:05;94464.19;;;1.65;100.00
22047;BME280;11187;49.412;20.956;2022-12-07T15:53:45;94467.53;;;1.59;100.00
22047;BME280;11187;49.412;20.956;2022-12-07T15:56:26;94463.28;;;1.52;100.00